Huvudsida
METAR-TAF:

METAR-TAF

Flygplatser :

Patna flygplats

Patna, Indien

latitud: 25-36N, longitud: 085-06E, höjd: 51 m

Aktuellt väderrapport

Denna rapport gjordes för 41 minuter sedan, klockan 20:30 UTC
Vind 6 kt från ost
Temperatur 35°C
Fuktighet 67%
Tryck 998 hPa
Sikt: 3500 m
torrdis

METAR: VEPT 252030Z 08006KT 3500 HZ NSC 35/28 Q0998 BECMG 3000 HZ

Tid: 02:41 (21:11 UTC)

Väderprognos

Denna rapport gjordes för 1 timme och 11 minuter sedan, klockan 20:00 UTC
Prognos gäller från 25 kl. 21 UTC till 26 kl. 06 UTC
Vind 7 kt från ost
Sikt: 2900 m
Få moln på en höjd av 10000 ft
fuktdis, torrdis
Blir
från 26 kl. 01 UTC till 26 kl. 03 UTC
Sikt: 4000 m
torrdis
Blir
från 26 kl. 05 UTC till 26 kl. 06 UTC
Sikt: 6000 m
Spridda moln på en höjd av 1800 ft
Spridda moln på en höjd av 2500 ft

TAF: VEPT 252000Z 2521/2606 09007KT 2900 BR HZ FEW100 BECMG 2601/2603 4000 HZ BECMG 2605/2606 6000 SCT018 SCT025

Aktuella väderrapporter och prognoser från 4000 flygplatser (METAR- och TAF-rapporter).

De tillgängliga stationerna syns som gula och röda prickar på kartan.

För musen över prickarna för att se namnen på stationerna.

Klicka sedan för att få väderrapporter och prognoser.

För att ändra kartan: Klicka på de gröna knapparna med ett svart kors på för att zooma in; den gröna knappen med ett streck på för att zooma ut; eller på de gröna pilarna för angränsande kartor.


METAR-TAF: